createdAt,value
2023-03-29T00:00:21.788Z,7.33
2023-03-29T00:03:25.531Z,7.70
2023-03-29T00:06:31.947Z,7.98
2023-03-29T00:09:35.194Z,8.12
2023-03-29T00:12:40.700Z,8.02
2023-03-29T00:15:44.021Z,8.02
2023-03-29T00:18:47.362Z,8.30
2023-03-29T00:21:50.926Z,8.57
2023-03-29T00:25:04.831Z,8.52
2023-03-29T00:28:08.292Z,8.91
2023-03-29T00:31:15.202Z,9.44
2023-03-29T00:34:18.922Z,10.28
2023-03-29T00:37:22.238Z,10.52
2023-03-29T00:40:25.610Z,10.64
2023-03-29T00:43:29.407Z,10.70
2023-03-29T00:46:35.512Z,10.42
2023-03-29T00:50:05.650Z,10.22
2023-03-29T00:53:13.175Z,9.64
2023-03-29T00:56:40.563Z,9.25
2023-03-29T00:59:46.025Z,9.16
2023-03-29T01:02:55.001Z,9.19
2023-03-29T01:06:03.838Z,9.36
2023-03-29T01:09:10.060Z,9.25
2023-03-29T01:12:17.956Z,9.16
2023-03-29T01:15:27.261Z,9.15
2023-03-29T01:18:32.164Z,9.01
2023-03-29T01:21:54.965Z,8.85
2023-03-29T01:25:26.909Z,8.75
2023-03-29T01:28:40.063Z,8.85
2023-03-29T01:31:52.462Z,9.07
2023-03-29T01:35:04.887Z,9.07
2023-03-29T01:38:14.629Z,9.19
2023-03-29T01:41:18.115Z,9.18
2023-03-29T01:45:16.940Z,9.29
2023-03-29T01:48:32.136Z,9.22
2023-03-29T01:51:46.377Z,9.14
2023-03-29T01:54:57.739Z,9.14
2023-03-29T01:58:03.958Z,9.21
2023-03-29T02:01:15.316Z,9.43
2023-03-29T02:04:28.546Z,9.58
2023-03-29T02:07:32.982Z,9.66
2023-03-29T02:10:37.708Z,9.44
2023-03-29T02:13:41.711Z,9.46
2023-03-29T02:16:46.926Z,9.40
2023-03-29T02:20:05.362Z,9.26
2023-03-29T02:23:36.946Z,9.14
2023-03-29T02:26:41.505Z,9.00
2023-03-29T02:29:47.592Z,9.04
2023-03-29T02:33:24.618Z,9.10
2023-03-29T02:36:39.006Z,9.02
2023-03-29T02:39:42.826Z,9.10
2023-03-29T02:42:47.579Z,9.29
2023-03-29T02:45:53.386Z,9.28
2023-03-29T02:48:59.546Z,9.15
2023-03-29T02:52:12.400Z,8.91
2023-03-29T02:55:19.631Z,8.95
2023-03-29T02:58:27.208Z,8.97
2023-03-29T03:01:30.911Z,9.18
2023-03-29T03:04:36.216Z,9.53
2023-03-29T03:07:42.520Z,9.54
2023-03-29T03:10:47.442Z,9.36
2023-03-29T03:13:50.983Z,9.25
2023-03-29T03:16:54.373Z,9.33
2023-03-29T03:19:57.877Z,9.56
2023-03-29T03:23:08.557Z,9.74
2023-03-29T03:26:18.655Z,9.98
2023-03-29T03:29:25.384Z,9.91
2023-03-29T03:32:35.717Z,9.83
2023-03-29T03:36:06.996Z,9.70
2023-03-29T03:39:20.834Z,9.74
2023-03-29T03:42:24.986Z,10.19
2023-03-29T03:45:29.720Z,10.13
2023-03-29T03:48:52.798Z,10.21
2023-03-29T03:52:01.181Z,10.05
2023-03-29T03:55:06.218Z,10.09
2023-03-29T03:58:34.938Z,10.35
2023-03-29T04:05:05.182Z,10.49
2023-03-29T04:08:14.622Z,10.55
2023-03-29T04:11:40.806Z,10.53
2023-03-29T04:14:48.520Z,10.63
2023-03-29T04:18:00.510Z,10.67
2023-03-29T04:21:13.856Z,10.43
2023-03-29T04:24:20.542Z,10.45
2023-03-29T04:27:49.928Z,10.39
2023-03-29T04:31:15.935Z,10.50
2023-03-29T04:34:29.346Z,10.63
2023-03-29T04:37:34.056Z,10.74
2023-03-29T04:40:39.038Z,10.50
2023-03-29T04:43:49.168Z,10.61
2023-03-29T04:47:00.616Z,10.80
2023-03-29T04:50:14.513Z,11.01
2023-03-29T04:53:20.484Z,10.95
2023-03-29T04:56:24.570Z,10.68
2023-03-29T04:59:47.049Z,10.55
2023-03-29T05:03:15.193Z,10.64
2023-03-29T05:06:39.284Z,10.60
2023-03-29T05:09:44.411Z,10.83
2023-03-29T05:12:56.934Z,10.73
2023-03-29T05:16:01.390Z,10.61
2023-03-29T05:19:09.464Z,10.59
2023-03-29T05:22:23.429Z,10.57
2023-03-29T05:25:27.701Z,10.75
2023-03-29T05:28:31.625Z,11.02
2023-03-29T05:31:36.494Z,11.15
2023-03-29T05:34:45.341Z,11.35
2023-03-29T05:37:49.018Z,11.36
2023-03-29T05:40:53.978Z,11.53
2023-03-29T05:44:23.659Z,11.70
2023-03-29T05:47:33.312Z,11.69
2023-03-29T05:50:38.193Z,12.04
2023-03-29T05:53:42.410Z,12.17
2023-03-29T05:56:46.022Z,12.02
2023-03-29T05:59:51.481Z,11.97
2023-03-29T06:03:13.667Z,11.69
2023-03-29T06:06:27.091Z,11.47
2023-03-29T06:09:32.456Z,11.39
2023-03-29T06:12:41.589Z,11.46
2023-03-29T06:15:45.736Z,11.40
2023-03-29T06:18:49.554Z,11.36
2023-03-29T06:21:55.770Z,11.25
2023-03-29T06:25:02.511Z,11.55
2023-03-29T06:28:09.496Z,11.90
2023-03-29T06:31:13.871Z,11.99
2023-03-29T06:34:18.043Z,12.01
2023-03-29T06:37:34.804Z,11.56
2023-03-29T06:40:53.350Z,11.38
2023-03-29T06:43:59.599Z,11.38
2023-03-29T06:47:09.890Z,11.30
2023-03-29T06:50:15.275Z,11.18
2023-03-29T06:53:31.421Z,11.14
2023-03-29T07:00:02.390Z,11.19
2023-03-29T07:03:28.639Z,11.50
2023-03-29T07:06:33.229Z,11.76
2023-03-29T07:09:40.627Z,11.94
2023-03-29T07:13:02.758Z,11.99
2023-03-29T07:16:07.336Z,11.90
2023-03-29T07:19:27.945Z,11.98
2023-03-29T07:22:31.400Z,11.70
2023-03-29T07:25:40.035Z,11.74
2023-03-29T07:28:44.091Z,11.87
2023-03-29T07:31:58.500Z,11.81
2023-03-29T07:35:34.606Z,11.93
2023-03-29T07:38:39.207Z,11.95
2023-03-29T07:41:48.649Z,11.84
2023-03-29T07:44:55.098Z,11.63
2023-03-29T07:48:00.347Z,11.57
2023-03-29T07:51:28.080Z,11.52
2023-03-29T07:54:39.667Z,11.55
2023-03-29T07:58:06.567Z,11.53
2023-03-29T08:01:18.774Z,11.66
2023-03-29T08:05:06.316Z,11.63
2023-03-29T08:08:25.581Z,11.71
2023-03-29T08:11:33.834Z,11.84
2023-03-29T08:14:39.992Z,12.01
2023-03-29T08:17:51.845Z,11.99
2023-03-29T08:20:55.430Z,11.85
2023-03-29T08:23:58.969Z,11.77
2023-03-29T08:27:25.310Z,11.83
2023-03-29T08:30:31.911Z,11.56
2023-03-29T08:33:37.757Z,11.39
2023-03-29T08:37:00.288Z,11.08
2023-03-29T08:40:22.243Z,10.94
2023-03-29T08:44:15.654Z,10.81
2023-03-29T08:47:39.707Z,10.68
2023-03-29T08:50:53.455Z,10.56
2023-03-29T08:54:17.465Z,10.53
2023-03-29T08:57:48.158Z,10.43
2023-03-29T09:01:06.640Z,10.45
2023-03-29T09:04:24.624Z,10.36
2023-03-29T09:07:38.699Z,10.25
2023-03-29T09:11:02.851Z,10.22
2023-03-29T09:14:40.986Z,10.19
2023-03-29T09:18:12.763Z,10.22
2023-03-29T09:21:48.872Z,10.25
2023-03-29T09:25:25.954Z,10.23
2023-03-29T09:28:49.033Z,10.12
2023-03-29T09:31:53.634Z,10.02
2023-03-29T09:35:28.603Z,9.91
2023-03-29T09:38:32.828Z,9.87
2023-03-29T09:42:04.994Z,9.91
2023-03-29T09:45:09.763Z,9.94
2023-03-29T09:48:21.631Z,9.97
2023-03-29T09:51:33.893Z,10.04
2023-03-29T09:54:37.609Z,9.94
2023-03-29T09:58:23.380Z,9.88
2023-03-29T10:01:42.225Z,9.87
2023-03-29T10:04:46.253Z,9.80
2023-03-29T10:07:54.378Z,9.75
2023-03-29T10:11:00.309Z,9.71
2023-03-29T10:14:14.826Z,9.61
2023-03-29T10:17:35.254Z,9.54
2023-03-29T10:20:41.355Z,9.44
2023-03-29T10:23:45.047Z,9.35
2023-03-29T10:26:50.165Z,9.30
2023-03-29T10:29:55.150Z,9.26
2023-03-29T10:33:02.977Z,9.22
2023-03-29T10:36:08.748Z,9.21
2023-03-29T10:39:16.918Z,9.16
2023-03-29T10:42:29.498Z,9.18
2023-03-29T10:45:36.526Z,9.14
2023-03-29T10:48:42.654Z,9.07
2023-03-29T10:55:07.640Z,8.94
2023-03-29T10:58:40.013Z,8.91
2023-03-29T11:01:53.555Z,8.87
2023-03-29T11:05:26.635Z,8.81
2023-03-29T11:08:48.859Z,8.78
2023-03-29T11:12:12.213Z,8.77
2023-03-29T11:15:31.572Z,8.73
2023-03-29T11:18:40.036Z,8.70
2023-03-29T11:22:01.436Z,8.67
2023-03-29T11:25:19.677Z,8.64
2023-03-29T11:28:36.701Z,8.59
2023-03-29T11:31:47.283Z,8.53
2023-03-29T11:35:12.968Z,8.50
2023-03-29T11:38:42.295Z,8.54
2023-03-29T11:41:54.688Z,8.46
2023-03-29T11:45:01.948Z,8.39
2023-03-29T11:48:19.945Z,8.35
2023-03-29T11:51:54.332Z,8.36
2023-03-29T11:55:06.116Z,8.33
2023-03-29T11:58:37.446Z,8.21
2023-03-29T12:01:57.243Z,8.15
2023-03-29T12:05:11.136Z,8.05
2023-03-29T12:08:19.228Z,7.95
2023-03-29T12:11:32.888Z,7.91
2023-03-29T12:14:54.891Z,7.91
2023-03-29T12:18:19.528Z,7.94
2023-03-29T12:21:25.396Z,7.99
2023-03-29T12:24:33.865Z,7.97
2023-03-29T12:28:38.344Z,8.02
2023-03-29T12:32:07.768Z,8.02
2023-03-29T12:35:22.886Z,7.99
2023-03-29T12:38:59.105Z,8.04
2023-03-29T12:43:09.248Z,8.01
2023-03-29T12:46:32.478Z,7.99
2023-03-29T12:49:39.927Z,7.94
2023-03-29T12:52:44.115Z,7.87
2023-03-29T12:55:56.741Z,7.78
2023-03-29T12:59:27.728Z,7.70
2023-03-29T13:02:37.724Z,7.62
2023-03-29T13:05:41.283Z,7.55
2023-03-29T13:08:45.889Z,7.53
2023-03-29T13:12:08.606Z,7.49
2023-03-29T13:15:18.423Z,7.38
2023-03-29T13:18:27.546Z,7.30
2023-03-29T13:21:54.642Z,7.18
2023-03-29T13:25:19.131Z,7.07
2023-03-29T13:28:51.858Z,7.01
2023-03-29T13:32:20.398Z,6.95
2023-03-29T13:35:42.700Z,6.94
2023-03-29T13:38:49.449Z,6.88
2023-03-29T13:41:54.853Z,6.84
2023-03-29T13:45:17.432Z,6.81
2023-03-29T13:48:49.585Z,6.79
2023-03-29T13:52:31.269Z,6.81
2023-03-29T13:55:44.388Z,6.77
2023-03-29T13:58:52.749Z,6.76
2023-03-29T14:02:01.278Z,6.70
2023-03-29T14:05:09.403Z,6.64
2023-03-29T14:08:29.936Z,6.63
2023-03-29T14:11:33.952Z,6.58
2023-03-29T14:14:42.623Z,6.60
2023-03-29T14:18:00.772Z,6.53
2023-03-29T14:21:04.858Z,6.50
2023-03-29T14:24:13.577Z,6.47
2023-03-29T14:27:18.285Z,6.42
2023-03-29T14:30:32.384Z,6.36
2023-03-29T14:33:37.157Z,6.29
2023-03-29T14:36:41.038Z,6.28
2023-03-29T14:39:45.300Z,6.19
2023-03-29T14:42:49.788Z,6.15
2023-03-29T14:45:53.252Z,6.19
2023-03-29T14:48:57.744Z,6.26
2023-03-29T14:52:01.196Z,6.38
2023-03-29T14:55:04.850Z,6.52
2023-03-29T14:58:37.102Z,6.67
2023-03-29T15:01:45.320Z,6.77
2023-03-29T15:04:56.590Z,6.85
2023-03-29T15:08:00.960Z,6.88
2023-03-29T15:11:12.620Z,6.91
2023-03-29T15:14:19.277Z,6.98
2023-03-29T15:17:50.298Z,6.95
2023-03-29T15:20:55.543Z,7.09
2023-03-29T15:24:01.235Z,7.14
2023-03-29T15:27:14.460Z,7.21
2023-03-29T15:30:19.886Z,7.26
2023-03-29T15:33:24.814Z,7.30
2023-03-29T15:36:28.288Z,7.35
2023-03-29T15:39:33.132Z,7.35
2023-03-29T15:42:37.276Z,7.33
2023-03-29T15:45:40.763Z,7.25
2023-03-29T15:48:44.310Z,7.19
2023-03-29T15:51:47.799Z,7.09
2023-03-29T15:54:51.063Z,7.04
2023-03-29T15:57:55.206Z,7.00
2023-03-29T16:01:12.147Z,7.01
2023-03-29T16:04:17.878Z,7.01
2023-03-29T16:07:21.650Z,7.04
2023-03-29T16:10:24.924Z,7.12
2023-03-29T16:13:28.269Z,7.18
2023-03-29T16:16:31.619Z,7.29
2023-03-29T16:19:35.622Z,7.33
2023-03-29T16:22:38.887Z,7.36
2023-03-29T16:25:42.280Z,7.43
2023-03-29T16:28:45.656Z,7.46
2023-03-29T16:31:50.106Z,7.45
2023-03-29T16:34:54.233Z,7.46
2023-03-29T16:37:57.659Z,7.39
2023-03-29T16:41:02.211Z,7.33
2023-03-29T16:44:05.655Z,7.22
2023-03-29T16:47:12.930Z,7.08
2023-03-29T16:50:19.372Z,6.95
2023-03-29T16:53:23.025Z,6.87
2023-03-29T16:56:28.161Z,6.77
2023-03-29T16:59:31.433Z,6.76
2023-03-29T17:02:35.167Z,6.69
2023-03-29T17:05:42.047Z,6.63
2023-03-29T17:08:45.390Z,6.57
2023-03-29T17:11:48.850Z,6.40
2023-03-29T17:14:53.310Z,6.28
2023-03-29T17:17:56.780Z,6.12
2023-03-29T17:21:00.201Z,6.00
2023-03-29T17:24:03.449Z,5.86
2023-03-29T17:27:06.709Z,5.75
2023-03-29T17:30:10.552Z,5.67
2023-03-29T17:33:14.308Z,5.59
2023-03-29T17:36:17.593Z,5.55
2023-03-29T17:39:20.913Z,5.47
2023-03-29T17:42:24.169Z,5.49
2023-03-29T17:45:27.774Z,5.40
2023-03-29T17:48:33.476Z,5.35
2023-03-29T17:51:36.944Z,5.38
2023-03-29T17:54:40.191Z,5.35
2023-03-29T17:57:44.538Z,5.29
2023-03-29T18:00:47.932Z,5.15
2023-03-29T18:03:51.387Z,5.09
2023-03-29T18:06:55.633Z,4.98
2023-03-29T18:09:59.235Z,4.94
2023-03-29T18:13:02.541Z,4.84
2023-03-29T18:16:07.526Z,4.73
2023-03-29T18:19:11.452Z,4.64
2023-03-29T18:22:14.689Z,4.57
2023-03-29T18:25:18.937Z,4.48
2023-03-29T18:28:23.570Z,4.50
2023-03-29T18:31:28.568Z,4.52
2023-03-29T18:34:32.033Z,4.49
2023-03-29T18:37:35.297Z,4.44
2023-03-29T18:40:39.902Z,4.44
2023-03-29T18:43:44.740Z,4.45
2023-03-29T18:46:48.726Z,4.41
2023-03-29T18:49:52.005Z,4.41
2023-03-29T18:52:55.302Z,4.44
2023-03-29T18:55:58.548Z,4.39
2023-03-29T18:59:05.724Z,4.41
2023-03-29T19:02:09.035Z,4.39
2023-03-29T19:05:12.605Z,4.35
2023-03-29T19:08:16.285Z,4.34
2023-03-29T19:11:19.560Z,4.31
2023-03-29T19:14:25.841Z,4.31
2023-03-29T19:17:29.205Z,4.27
2023-03-29T19:20:32.807Z,4.24
2023-03-29T19:23:36.916Z,4.19
2023-03-29T19:26:40.588Z,4.12
2023-03-29T19:29:43.932Z,4.11
2023-03-29T19:32:47.535Z,4.11
2023-03-29T19:35:52.530Z,4.09
2023-03-29T19:38:56.348Z,4.07
2023-03-29T19:41:59.666Z,4.07
2023-03-29T19:45:04.598Z,4.09
2023-03-29T19:48:19.457Z,4.07
2023-03-29T19:51:27.388Z,4.14
2023-03-29T19:54:31.407Z,4.08
2023-03-29T19:57:34.841Z,4.12
2023-03-29T20:00:39.500Z,4.11
2023-03-29T20:03:43.831Z,4.09
2023-03-29T20:06:47.591Z,4.18
2023-03-29T20:09:53.043Z,4.28
2023-03-29T20:12:57.705Z,4.27
2023-03-29T20:16:01.030Z,4.25
2023-03-29T20:19:06.681Z,4.24
2023-03-29T20:22:09.961Z,4.28
2023-03-29T20:25:13.400Z,4.28
2023-03-29T20:28:16.659Z,4.42
2023-03-29T20:31:20.007Z,4.41
2023-03-29T20:34:23.445Z,4.38
2023-03-29T20:37:26.799Z,4.41
2023-03-29T20:40:30.804Z,4.49
2023-03-29T20:43:41.824Z,4.42
2023-03-29T20:47:08.762Z,4.27
2023-03-29T20:50:12.236Z,4.18
2023-03-29T20:53:16.986Z,4.05
2023-03-29T20:56:21.454Z,4.04
2023-03-29T20:59:24.756Z,4.04
2023-03-29T21:02:28.122Z,4.02
2023-03-29T21:05:33.742Z,4.05
2023-03-29T21:08:39.301Z,4.15
2023-03-29T21:11:42.932Z,4.45
2023-03-29T21:14:48.042Z,4.64
2023-03-29T21:17:51.649Z,4.94
2023-03-29T21:20:54.928Z,4.92
2023-03-29T21:23:58.234Z,4.79
2023-03-29T21:27:01.917Z,4.63
2023-03-29T21:30:09.369Z,4.49
2023-03-29T21:33:12.317Z,4.29
2023-03-29T21:36:16.047Z,4.15
2023-03-29T21:39:19.430Z,3.95
2023-03-29T21:42:22.677Z,3.86
2023-03-29T21:45:26.082Z,3.80
2023-03-29T21:48:29.691Z,3.77
2023-03-29T21:51:33.358Z,3.70
2023-03-29T21:54:37.049Z,3.66
2023-03-29T21:57:40.339Z,3.67
2023-03-29T22:00:43.724Z,3.64
2023-03-29T22:03:48.225Z,3.63
2023-03-29T22:06:51.532Z,3.63
2023-03-29T22:09:55.392Z,3.69
2023-03-29T22:12:58.685Z,3.69
2023-03-29T22:16:04.464Z,3.72
2023-03-29T22:19:09.305Z,3.74
2023-03-29T22:22:14.904Z,3.73
2023-03-29T22:25:19.877Z,3.63
2023-03-29T22:28:23.162Z,3.64
2023-03-29T22:31:27.980Z,3.69
2023-03-29T22:34:32.059Z,3.73
2023-03-29T22:37:40.291Z,3.80
2023-03-29T22:40:43.783Z,3.86
2023-03-29T22:43:47.520Z,4.01
2023-03-29T22:46:51.002Z,4.14
2023-03-29T22:49:54.317Z,4.62
2023-03-29T22:52:57.596Z,5.59
2023-03-29T22:56:00.931Z,6.25
2023-03-29T22:59:04.366Z,6.81
2023-03-29T23:02:08.334Z,7.42
2023-03-29T23:05:11.826Z,8.09
2023-03-29T23:08:15.124Z,8.70
2023-03-29T23:11:18.415Z,9.00
2023-03-29T23:14:21.701Z,9.70
2023-03-29T23:17:25.013Z,10.60
2023-03-29T23:20:30.844Z,11.05
2023-03-29T23:23:34.320Z,11.39
2023-03-29T23:26:38.218Z,11.80
2023-03-29T23:29:41.700Z,12.26
2023-03-29T23:32:45.133Z,11.94
2023-03-29T23:35:49.435Z,12.12
2023-03-29T23:38:53.046Z,12.40
2023-03-29T23:41:57.328Z,12.72
2023-03-29T23:45:00.918Z,13.16
2023-03-29T23:48:04.466Z,13.35
2023-03-29T23:51:08.809Z,13.94
2023-03-29T23:54:15.938Z,14.35
2023-03-29T23:57:19.442Z,14.39
